createdAt,value
2017-11-05T00:02:02.063Z,18.00
2017-11-05T00:04:29.929Z,17.70
2017-11-05T00:06:57.795Z,19.48
2017-11-05T00:09:25.663Z,17.62
2017-11-05T00:11:53.530Z,17.23
2017-11-05T00:14:21.402Z,16.17
2017-11-05T00:16:49.271Z,15.75
2017-11-05T00:19:17.134Z,18.08
2017-11-05T00:21:44.999Z,16.25
2017-11-05T00:24:12.875Z,17.67
2017-11-05T00:26:40.738Z,16.85
2017-11-05T00:29:08.605Z,16.83
2017-11-05T00:31:36.473Z,16.30
2017-11-05T00:34:04.337Z,17.27
2017-11-05T00:36:32.204Z,17.40
2017-11-05T00:39:00.070Z,15.90
2017-11-05T00:41:27.939Z,17.65
2017-11-05T00:43:55.694Z,17.85
2017-11-05T00:46:23.418Z,17.05
2017-11-05T00:48:51.144Z,16.62
2017-11-05T00:51:18.873Z,15.63
2017-11-05T00:53:46.649Z,19.60
2017-11-05T00:56:14.361Z,17.00
2017-11-05T00:58:43.135Z,17.05
2017-11-05T01:01:10.857Z,17.42
2017-11-05T01:03:38.744Z,17.20
2017-11-05T01:06:06.611Z,16.62
2017-11-05T01:08:34.479Z,17.15
2017-11-05T01:11:02.346Z,18.48
2017-11-05T01:13:30.213Z,18.70
2017-11-05T01:15:57.945Z,16.30
2017-11-05T01:18:25.657Z,17.45
2017-11-05T01:20:53.508Z,17.98
2017-11-05T01:23:21.375Z,16.15
2017-11-05T01:25:49.241Z,18.10
2017-11-05T01:28:17.109Z,17.52
2017-11-05T01:30:44.976Z,18.30
2017-11-05T01:33:12.844Z,20.60
2017-11-05T01:35:40.711Z,20.75
2017-11-05T01:38:08.580Z,22.02
2017-11-05T01:40:36.448Z,19.92
2017-11-05T01:43:04.218Z,20.20
2017-11-05T01:45:32.743Z,20.70
2017-11-05T01:48:00.481Z,19.75
2017-11-05T01:50:28.250Z,21.05
2017-11-05T01:52:56.090Z,19.25
2017-11-05T01:55:23.958Z,19.80
2017-11-05T01:57:51.825Z,20.55
2017-11-05T02:00:19.693Z,20.00
2017-11-05T02:02:47.559Z,22.45
2017-11-05T02:05:15.374Z,22.95
2017-11-05T02:07:44.011Z,21.67
2017-11-05T02:10:11.913Z,21.12
2017-11-05T02:12:40.502Z,29.27
2017-11-05T02:15:09.149Z,31.10
2017-11-05T02:17:36.878Z,30.77
2017-11-05T02:20:04.679Z,30.17
2017-11-05T02:22:32.489Z,32.55
2017-11-05T02:25:01.031Z,32.47
2017-11-05T02:27:28.830Z,31.17
2017-11-05T02:29:57.478Z,32.55
2017-11-05T02:32:25.346Z,31.60
2017-11-05T02:34:53.101Z,29.35
2017-11-05T02:37:20.848Z,29.17
2017-11-05T02:39:48.581Z,30.48
2017-11-05T02:42:17.105Z,31.42
2017-11-05T02:44:44.883Z,33.03
2017-11-05T02:47:12.688Z,30.02
2017-11-05T02:49:41.226Z,28.98
2017-11-05T02:52:09.104Z,30.20
2017-11-05T02:54:36.973Z,35.22
2017-11-05T02:57:04.772Z,37.30
2017-11-05T02:59:33.423Z,37.17
2017-11-05T03:02:01.392Z,36.72
2017-11-05T03:04:29.260Z,36.90
2017-11-05T03:06:57.048Z,40.25
2017-11-05T03:09:24.995Z,37.63
2017-11-05T03:11:52.964Z,37.72
2017-11-05T03:14:23.259Z,38.58
2017-11-05T03:16:56.292Z,34.35
2017-11-05T03:19:25.590Z,31.83
2017-11-05T03:22:02.687Z,31.55
2017-11-05T03:24:30.558Z,30.62
2017-11-05T03:26:58.344Z,33.05
2017-11-05T03:29:26.155Z,31.42
2017-11-05T03:31:53.924Z,31.17
2017-11-05T03:34:21.715Z,28.10
2017-11-05T03:36:49.498Z,27.95
2017-11-05T03:39:18.066Z,27.10
2017-11-05T03:41:46.015Z,28.83
2017-11-05T03:44:13.984Z,28.62
2017-11-05T03:46:41.779Z,27.42
2017-11-05T03:49:10.332Z,25.95
2017-11-05T03:51:38.139Z,26.48
2017-11-05T03:54:06.697Z,26.52
2017-11-05T03:56:34.494Z,24.90
2017-11-05T03:59:02.287Z,25.23
2017-11-05T04:01:30.071Z,23.92
2017-11-05T04:03:57.867Z,25.20
2017-11-05T04:06:25.686Z,27.77
2017-11-05T04:08:53.483Z,27.75
2017-11-05T04:11:21.352Z,26.98
2017-11-05T04:13:49.151Z,24.65
2017-11-05T04:16:17.716Z,25.95
2017-11-05T04:18:46.413Z,26.58
2017-11-05T04:21:15.060Z,25.23
2017-11-05T04:23:42.928Z,24.35
2017-11-05T04:26:10.727Z,24.98
2017-11-05T04:28:39.277Z,24.67
2017-11-05T04:31:07.078Z,23.35
2017-11-05T04:33:35.626Z,24.60
2017-11-05T04:36:03.427Z,28.25
2017-11-05T04:38:32.050Z,24.45
2017-11-05T04:40:59.847Z,27.42
2017-11-05T04:43:27.812Z,28.70
2017-11-05T04:45:55.781Z,29.05
2017-11-05T04:48:23.751Z,30.05
2017-11-05T04:50:51.730Z,27.13
2017-11-05T04:53:19.691Z,27.60
2017-11-05T04:55:47.560Z,28.75
2017-11-05T04:58:15.528Z,32.08
2017-11-05T05:00:43.398Z,30.35
2017-11-05T05:03:11.263Z,31.15
2017-11-05T05:05:39.129Z,29.20
2017-11-05T05:08:06.997Z,28.90
2017-11-05T05:10:34.966Z,33.50
2017-11-05T05:13:02.833Z,35.95
2017-11-05T05:15:30.700Z,34.30
2017-11-05T05:17:58.570Z,34.03
2017-11-05T05:20:26.374Z,34.60
2017-11-05T05:22:54.933Z,31.95
2017-11-05T05:25:22.733Z,30.92
2017-11-05T05:27:51.303Z,33.10
2017-11-05T05:30:19.875Z,30.90
2017-11-05T05:32:47.686Z,33.20
2017-11-05T05:35:15.481Z,34.08
2017-11-05T05:37:43.295Z,33.15
2017-11-05T05:40:11.862Z,34.83
2017-11-05T05:42:39.794Z,35.45
2017-11-05T05:45:07.668Z,35.65
2017-11-05T05:47:35.639Z,35.80
2017-11-05T05:50:03.607Z,32.75
2017-11-05T05:52:31.577Z,33.25
2017-11-05T05:54:59.446Z,34.70
2017-11-05T05:57:27.415Z,37.17
2017-11-05T05:59:55.282Z,38.88
2017-11-05T06:02:23.150Z,35.50
2017-11-05T06:04:51.017Z,35.53
2017-11-05T06:07:18.795Z,34.75
2017-11-05T06:09:46.599Z,32.38
2017-11-05T06:12:15.167Z,30.90
2017-11-05T06:14:43.730Z,31.08
2017-11-05T06:17:11.527Z,32.75
2017-11-05T06:19:40.088Z,32.72
2017-11-05T06:22:07.885Z,31.65
2017-11-05T06:24:37.293Z,31.55
2017-11-05T06:27:06.777Z,32.45
2017-11-05T06:29:36.896Z,32.15
2017-11-05T06:32:05.462Z,30.20
2017-11-05T06:34:33.326Z,31.05
2017-11-05T06:37:01.126Z,27.42
2017-11-05T06:39:28.941Z,31.30
2017-11-05T06:41:56.841Z,28.55
2017-11-05T06:44:25.495Z,28.20
2017-11-05T06:46:53.286Z,28.30
2017-11-05T06:51:55.063Z,29.05
2017-11-05T06:54:23.725Z,29.08
2017-11-05T06:56:51.647Z,26.10
2017-11-05T06:59:19.461Z,27.30
2017-11-05T07:01:48.046Z,27.70
2017-11-05T07:04:16.130Z,27.20
2017-11-05T07:06:43.967Z,25.60
2017-11-05T07:09:11.852Z,25.02
2017-11-05T07:11:39.819Z,24.80
2017-11-05T07:14:07.788Z,19.50
2017-11-05T07:16:35.985Z,23.00
2017-11-05T07:19:06.434Z,18.85
2017-11-05T07:21:35.781Z,15.23
2017-11-05T07:24:04.588Z,15.20
2017-11-05T07:26:32.657Z,15.00
2017-11-05T07:29:00.727Z,16.02
2017-11-05T07:34:03.633Z,17.60
2017-11-05T07:36:31.599Z,18.27
2017-11-05T07:38:59.673Z,18.55
2017-11-05T07:41:27.538Z,19.12
2017-11-05T07:43:55.335Z,19.87
2017-11-05T07:46:23.914Z,19.10
2017-11-05T07:48:51.858Z,19.40
2017-11-05T07:51:19.827Z,17.92
2017-11-05T07:53:47.801Z,19.48
2017-11-05T07:56:15.766Z,18.95
2017-11-05T07:58:43.737Z,18.55
2017-11-05T08:01:11.710Z,18.85
2017-11-05T08:03:39.676Z,19.17
2017-11-05T08:06:07.650Z,18.12
2017-11-05T08:08:35.615Z,17.95
2017-11-05T08:11:03.584Z,16.33
2017-11-05T08:13:31.555Z,18.35
2017-11-05T08:15:59.524Z,19.58
2017-11-05T08:18:27.493Z,18.02
2017-11-05T08:20:55.467Z,14.82
2017-11-05T08:23:23.433Z,14.63
2017-11-05T08:25:51.301Z,14.32
2017-11-05T08:28:19.168Z,14.77
2017-11-05T08:30:47.036Z,14.23
2017-11-05T08:33:14.903Z,12.93
2017-11-05T08:35:42.770Z,15.00
2017-11-05T08:38:10.638Z,12.35
2017-11-05T08:40:38.430Z,10.48
2017-11-05T08:43:07.130Z,11.12
2017-11-05T08:45:35.775Z,10.43
2017-11-05T08:48:03.649Z,11.43
2017-11-05T08:50:31.619Z,13.90
2017-11-05T08:52:59.583Z,11.40
2017-11-05T08:55:27.449Z,9.88
2017-11-05T08:57:55.317Z,8.70
2017-11-05T09:00:24.106Z,4.07
2017-11-05T09:02:52.075Z,2.25
2017-11-05T09:05:19.944Z,1.92
2017-11-05T09:07:47.811Z,1.80
2017-11-05T09:10:15.678Z,1.87
2017-11-05T09:12:43.546Z,1.70
2017-11-05T09:15:11.514Z,1.90
2017-11-05T09:17:39.382Z,1.75
2017-11-05T09:20:07.250Z,2.15
2017-11-05T09:22:35.118Z,2.58
2017-11-05T09:25:02.984Z,1.80
2017-11-05T09:27:30.780Z,2.10
2017-11-05T09:29:59.435Z,1.95
2017-11-05T09:32:27.302Z,2.30
2017-11-05T09:34:55.169Z,2.80
2017-11-05T09:37:23.037Z,2.42
2017-11-05T09:39:50.904Z,2.10
2017-11-05T09:42:18.772Z,2.15
2017-11-05T09:44:46.639Z,1.87
2017-11-05T09:47:14.507Z,2.00
2017-11-05T09:49:42.374Z,2.10
2017-11-05T09:52:10.241Z,2.22
2017-11-05T09:54:38.108Z,2.40
2017-11-05T09:57:05.976Z,2.20
2017-11-05T09:59:33.842Z,1.95
2017-11-05T10:02:01.711Z,1.95
2017-11-05T10:04:29.582Z,1.90
2017-11-05T10:06:57.448Z,1.92
2017-11-05T10:09:25.314Z,1.98
2017-11-05T10:11:53.180Z,1.80
2017-11-05T10:14:21.052Z,2.20
2017-11-05T10:16:48.919Z,2.08
2017-11-05T10:19:16.786Z,1.90
2017-11-05T10:21:44.652Z,2.25
2017-11-05T10:24:12.517Z,2.05
2017-11-05T10:26:40.383Z,2.10
2017-11-05T10:29:08.251Z,2.22
2017-11-05T10:31:36.135Z,2.30
2017-11-05T10:34:03.990Z,2.40
2017-11-05T10:36:31.852Z,2.40
2017-11-05T10:38:59.720Z,2.20
2017-11-05T10:41:27.588Z,2.40
2017-11-05T10:43:55.455Z,2.35
2017-11-05T10:46:23.340Z,2.67
2017-11-05T10:48:51.190Z,2.60
2017-11-05T10:51:19.057Z,2.30
2017-11-05T10:53:46.924Z,2.42
2017-11-05T10:56:14.790Z,2.70
2017-11-05T10:58:42.659Z,2.00
2017-11-05T11:01:10.526Z,2.20
2017-11-05T11:03:38.393Z,2.30
2017-11-05T11:06:06.264Z,2.03
2017-11-05T11:08:34.128Z,2.37
2017-11-05T11:11:01.995Z,2.42
2017-11-05T11:13:29.861Z,2.20
2017-11-05T11:15:57.748Z,2.15
2017-11-05T11:18:25.597Z,2.00
2017-11-05T11:20:53.464Z,1.83
2017-11-05T11:23:21.356Z,2.33
2017-11-05T11:25:50.020Z,2.35
2017-11-05T11:28:17.885Z,2.47
2017-11-05T11:30:45.752Z,2.40
2017-11-05T11:33:15.387Z,2.20
2017-11-05T11:35:43.258Z,2.60
2017-11-05T11:38:11.915Z,2.42
2017-11-05T11:40:39.781Z,2.60
2017-11-05T11:43:07.649Z,2.25
2017-11-05T11:45:35.517Z,2.35
2017-11-05T11:48:03.383Z,2.70
2017-11-05T11:50:31.182Z,1.90
2017-11-05T11:52:59.837Z,2.50
2017-11-05T11:55:27.563Z,2.20
2017-11-05T11:57:55.314Z,2.35
2017-11-05T12:00:23.232Z,2.45
2017-11-05T12:02:51.099Z,2.60
2017-11-05T12:05:19.069Z,2.50
2017-11-05T12:07:46.937Z,2.42
2017-11-05T12:10:15.724Z,2.12
2017-11-05T12:12:43.614Z,2.60
2017-11-05T12:15:12.279Z,2.22
2017-11-05T12:17:40.181Z,2.15
2017-11-05T12:20:08.125Z,2.70
2017-11-05T12:22:37.040Z,2.80
2017-11-05T12:25:05.694Z,2.50
2017-11-05T12:27:33.563Z,2.67
2017-11-05T12:30:01.635Z,2.60
2017-11-05T12:32:29.502Z,2.90
2017-11-05T12:34:59.220Z,2.72
2017-11-05T12:37:27.181Z,2.45
2017-11-05T12:39:54.983Z,2.40
2017-11-05T12:42:23.632Z,1.92
2017-11-05T12:44:51.498Z,2.40
2017-11-05T12:47:19.366Z,2.40
2017-11-05T12:49:47.237Z,2.17
2017-11-05T12:52:15.101Z,2.22
2017-11-05T12:54:42.969Z,2.70
2017-11-05T12:57:10.836Z,2.30
2017-11-05T12:59:38.704Z,2.70
2017-11-05T13:02:06.575Z,3.75
2017-11-05T13:04:34.439Z,2.50
2017-11-05T13:07:02.307Z,2.35
2017-11-05T13:09:30.175Z,2.67
2017-11-05T13:11:58.041Z,2.80
2017-11-05T13:14:26.015Z,3.10
2017-11-05T13:16:53.877Z,2.92
2017-11-05T13:19:21.745Z,3.08
2017-11-05T13:21:49.612Z,3.45
2017-11-05T13:24:18.640Z,3.60
2017-11-05T13:26:47.296Z,3.78
2017-11-05T13:29:15.161Z,3.72
2017-11-05T13:31:43.032Z,3.58
2017-11-05T13:34:10.901Z,3.67
2017-11-05T13:36:38.766Z,4.47
2017-11-05T13:39:06.631Z,4.18
2017-11-05T13:41:34.498Z,4.20
2017-11-05T13:44:02.666Z,5.03
2017-11-05T13:46:31.900Z,4.70
2017-11-05T13:49:05.379Z,4.80
2017-11-05T13:51:38.854Z,4.55
2017-11-05T13:54:13.020Z,4.20
2017-11-05T13:56:41.053Z,4.37
2017-11-05T13:59:08.923Z,4.70
2017-11-05T14:01:36.790Z,4.70
2017-11-05T14:04:04.657Z,4.87
2017-11-05T14:06:32.528Z,5.12
2017-11-05T14:09:00.391Z,5.50
2017-11-05T14:11:30.798Z,5.25
2017-11-05T14:14:00.877Z,4.55
2017-11-05T14:16:32.213Z,4.70
2017-11-05T14:19:02.253Z,5.03
2017-11-05T14:21:32.087Z,5.25
2017-11-05T14:24:00.804Z,4.78
2017-11-05T14:26:28.875Z,4.65
2017-11-05T14:28:56.744Z,4.60
2017-11-05T14:31:24.613Z,5.07
2017-11-05T14:33:53.101Z,4.10
2017-11-05T14:36:20.962Z,4.62
2017-11-05T14:38:48.826Z,4.37
2017-11-05T14:41:16.694Z,5.00
2017-11-05T14:43:44.665Z,6.05
2017-11-05T14:46:12.634Z,4.93
2017-11-05T14:48:40.604Z,4.32
2017-11-05T14:51:08.472Z,5.10
2017-11-05T14:53:36.442Z,5.40
2017-11-05T14:56:04.308Z,4.35
2017-11-05T14:58:32.278Z,5.18
2017-11-05T15:01:00.248Z,4.95
2017-11-05T15:03:28.115Z,4.03
2017-11-05T15:05:55.982Z,4.53
2017-11-05T15:08:23.850Z,8.10
2017-11-05T15:10:51.716Z,5.65
2017-11-05T15:13:19.514Z,5.80
2017-11-05T15:15:48.170Z,5.68
2017-11-05T15:18:16.035Z,4.90
2017-11-05T15:20:43.903Z,4.37
2017-11-05T15:23:11.810Z,4.57
2017-11-05T15:25:40.456Z,4.55
2017-11-05T15:28:08.259Z,3.83
2017-11-05T15:30:36.911Z,3.85
2017-11-05T15:33:04.776Z,4.25
2017-11-05T15:35:32.747Z,4.97
2017-11-05T15:38:00.620Z,3.90
2017-11-05T15:40:28.582Z,4.15
2017-11-05T15:42:56.449Z,4.70
2017-11-05T15:45:24.419Z,5.95
2017-11-05T15:47:52.390Z,5.22
2017-11-05T15:50:20.255Z,4.47
2017-11-05T15:52:48.226Z,4.47
2017-11-05T15:55:16.197Z,4.22
2017-11-05T15:57:44.063Z,3.90
2017-11-05T16:00:11.936Z,4.47
2017-11-05T16:02:41.402Z,4.78
2017-11-05T16:05:09.302Z,4.45
2017-11-05T16:07:37.170Z,3.78
2017-11-05T16:10:05.140Z,4.50
2017-11-05T16:12:33.009Z,4.35
2017-11-05T16:15:00.873Z,5.10
2017-11-05T16:17:28.647Z,4.45
2017-11-05T16:19:56.507Z,4.40
2017-11-05T16:22:24.401Z,4.50
2017-11-05T16:24:52.343Z,4.20
2017-11-05T16:27:20.217Z,4.78
2017-11-05T16:29:48.078Z,3.95
2017-11-05T16:32:15.946Z,4.80
2017-11-05T16:34:43.816Z,4.95
2017-11-05T16:37:11.683Z,5.82
2017-11-05T16:39:39.550Z,4.82
2017-11-05T16:42:07.417Z,6.40
2017-11-05T16:44:35.288Z,5.57
2017-11-05T16:47:03.158Z,4.68
2017-11-05T16:49:30.915Z,4.90
2017-11-05T16:51:58.662Z,5.68
2017-11-05T16:54:26.794Z,5.10
2017-11-05T16:56:54.528Z,4.80
2017-11-05T16:59:22.393Z,4.45
2017-11-05T17:01:50.254Z,5.22
2017-11-05T17:04:18.122Z,3.70
2017-11-05T17:06:46.092Z,4.32
2017-11-05T17:09:14.062Z,3.85
2017-11-05T17:11:41.926Z,4.50
2017-11-05T17:14:09.793Z,5.40
2017-11-05T17:16:37.662Z,5.12
2017-11-05T17:19:05.528Z,5.45
2017-11-05T17:21:33.395Z,4.72
2017-11-05T17:24:01.302Z,4.37
2017-11-05T17:26:29.983Z,4.47
2017-11-05T17:28:59.082Z,5.30
2017-11-05T17:31:27.731Z,5.05
2017-11-05T17:33:55.600Z,4.90
2017-11-05T17:36:23.567Z,5.25
2017-11-05T17:38:51.435Z,4.40
2017-11-05T17:41:19.334Z,5.45
2017-11-05T17:43:48.743Z,4.75
2017-11-05T17:46:17.523Z,4.53
2017-11-05T17:51:30.637Z,4.47
2017-11-05T17:54:02.665Z,6.47
2017-11-05T17:56:30.699Z,5.28
2017-11-05T17:59:01.195Z,4.90
2017-11-05T18:01:29.172Z,5.68
2017-11-05T18:03:58.699Z,6.75
2017-11-05T18:06:27.060Z,6.20
2017-11-05T18:08:55.401Z,7.45
2017-11-05T18:11:24.316Z,7.70
2017-11-05T18:13:56.325Z,8.45
2017-11-05T18:16:24.261Z,9.00
2017-11-05T18:18:55.883Z,9.23
2017-11-05T18:21:23.785Z,10.90
2017-11-05T18:23:51.593Z,7.97
2017-11-05T18:26:20.235Z,7.00
2017-11-05T18:28:48.106Z,7.20
2017-11-05T18:31:16.074Z,6.78
2017-11-05T18:33:43.942Z,6.53
2017-11-05T18:36:11.810Z,6.32
2017-11-05T18:38:39.676Z,6.00
2017-11-05T18:41:07.549Z,6.43
2017-11-05T18:43:35.411Z,7.82
2017-11-05T18:46:03.278Z,7.60
2017-11-05T18:48:31.145Z,7.10
2017-11-05T18:50:59.012Z,6.95
2017-11-05T18:53:26.881Z,6.43
2017-11-05T18:55:54.747Z,6.53
2017-11-05T18:58:22.614Z,5.28
2017-11-05T19:00:50.582Z,5.70
2017-11-05T19:03:18.450Z,4.60
2017-11-05T19:05:46.319Z,4.78
2017-11-05T19:08:14.185Z,4.60
2017-11-05T19:10:42.052Z,3.72
2017-11-05T19:13:09.919Z,4.18
2017-11-05T19:15:37.787Z,3.37
2017-11-05T19:18:05.654Z,4.00
2017-11-05T19:20:33.521Z,4.00
2017-11-05T19:23:01.389Z,4.12
2017-11-05T19:25:29.256Z,4.60
2017-11-05T19:27:57.126Z,3.90
2017-11-05T19:30:24.991Z,4.10
2017-11-05T19:32:52.859Z,4.65
2017-11-05T19:35:20.827Z,4.95
2017-11-05T19:37:48.703Z,4.07
2017-11-05T19:40:16.603Z,4.90
2017-11-05T19:42:44.532Z,5.15
2017-11-05T19:45:12.399Z,4.87
2017-11-05T19:47:40.267Z,4.93
2017-11-05T19:50:08.134Z,4.43
2017-11-05T19:52:36.004Z,4.15
2017-11-05T19:55:03.869Z,5.12
2017-11-05T19:57:31.741Z,4.50
2017-11-05T19:59:59.603Z,5.12
2017-11-05T20:02:27.472Z,4.40
2017-11-05T20:04:55.338Z,4.80
2017-11-05T20:07:23.209Z,4.70
2017-11-05T20:09:51.076Z,5.35
2017-11-05T20:12:18.941Z,5.10
2017-11-05T20:14:46.815Z,5.22
2017-11-05T20:17:14.680Z,4.62
2017-11-05T20:19:42.546Z,5.07
2017-11-05T20:22:10.414Z,5.03
2017-11-05T20:24:38.278Z,5.55
2017-11-05T20:27:06.151Z,6.40
2017-11-05T20:29:34.011Z,6.47
2017-11-05T20:32:01.880Z,6.90
2017-11-05T20:34:29.684Z,6.60
2017-11-05T20:36:58.355Z,6.37
2017-11-05T20:39:26.197Z,6.70
2017-11-05T20:41:54.066Z,6.53
2017-11-05T20:44:21.932Z,6.80
2017-11-05T20:46:49.799Z,7.03
2017-11-05T20:49:17.667Z,6.68
2017-11-05T20:51:45.533Z,6.30
2017-11-05T20:54:13.401Z,5.97
2017-11-05T20:56:41.268Z,5.65
2017-11-05T20:59:09.135Z,5.00
2017-11-05T21:01:37.003Z,5.70
2017-11-05T21:04:04.879Z,5.95
2017-11-05T21:06:32.738Z,5.57
2017-11-05T21:09:00.605Z,5.78
2017-11-05T21:11:28.472Z,5.65
2017-11-05T21:13:56.340Z,6.45
2017-11-05T21:16:24.207Z,6.68
2017-11-05T21:18:52.075Z,6.22
2017-11-05T21:21:19.952Z,5.85
2017-11-05T21:23:47.808Z,6.00
2017-11-05T21:26:15.781Z,6.55
2017-11-05T21:28:43.648Z,5.95
2017-11-05T21:31:11.513Z,6.10
2017-11-05T21:33:39.380Z,5.65
2017-11-05T21:36:07.247Z,7.05
2017-11-05T21:38:35.114Z,6.18
2017-11-05T21:41:02.983Z,6.65
2017-11-05T21:43:30.850Z,6.82
2017-11-05T21:45:58.717Z,7.55
2017-11-05T21:48:26.587Z,6.95
2017-11-05T21:50:54.454Z,7.45
2017-11-05T21:53:22.421Z,6.93
2017-11-05T21:55:50.289Z,6.95
2017-11-05T21:58:18.160Z,7.50
2017-11-05T22:00:46.024Z,6.85
2017-11-05T22:03:13.894Z,6.85
2017-11-05T22:05:41.758Z,6.78
2017-11-05T22:08:09.971Z,6.68
2017-11-05T22:10:38.620Z,6.70
2017-11-05T22:13:06.486Z,7.97
2017-11-05T22:15:34.355Z,7.00
2017-11-05T22:18:02.270Z,7.10
2017-11-05T22:20:30.907Z,7.10
2017-11-05T22:22:58.778Z,7.55
2017-11-05T22:25:26.661Z,7.72
2017-11-05T22:27:55.331Z,8.32
2017-11-05T22:30:23.199Z,9.45
2017-11-05T22:32:51.064Z,7.85
2017-11-05T22:35:19.033Z,7.47
2017-11-05T22:37:46.838Z,7.65
2017-11-05T22:40:15.486Z,7.55
2017-11-05T22:42:43.354Z,7.03
2017-11-05T22:45:11.321Z,7.03
2017-11-05T22:47:39.189Z,7.78
2017-11-05T22:50:07.066Z,8.60
2017-11-05T22:52:34.930Z,8.05
2017-11-05T22:55:02.790Z,8.10
2017-11-05T22:57:30.658Z,8.10
2017-11-05T22:59:58.525Z,7.50
2017-11-05T23:02:26.393Z,8.40
2017-11-05T23:04:54.259Z,9.85
2017-11-05T23:07:22.131Z,8.70
2017-11-05T23:09:49.994Z,8.13
2017-11-05T23:12:17.861Z,7.30
2017-11-05T23:14:45.729Z,9.32
2017-11-05T23:17:14.621Z,8.25
2017-11-05T23:19:42.488Z,8.43
2017-11-05T23:22:10.355Z,8.43
2017-11-05T23:24:38.221Z,7.57
2017-11-05T23:27:06.090Z,8.68
2017-11-05T23:29:33.960Z,7.93
2017-11-05T23:32:01.826Z,7.50
2017-11-05T23:34:29.693Z,7.75
2017-11-05T23:36:57.562Z,7.90
2017-11-05T23:39:25.432Z,8.00
2017-11-05T23:41:53.298Z,8.45
2017-11-05T23:44:21.163Z,9.20
2017-11-05T23:46:49.028Z,8.25
2017-11-05T23:49:16.895Z,7.53
2017-11-05T23:51:44.768Z,9.13
2017-11-05T23:54:12.629Z,7.55
2017-11-05T23:56:40.497Z,8.30
2017-11-05T23:59:08.365Z,8.35
